createdAt,value
2018-12-14T00:00:00.577Z,1.70
2018-12-14T00:02:33.013Z,1.60
2018-12-14T00:05:05.554Z,1.60
2018-12-14T00:07:37.647Z,1.60
2018-12-14T00:10:09.271Z,1.60
2018-12-14T00:12:39.420Z,1.50
2018-12-14T00:15:09.713Z,1.60
2018-12-14T00:17:39.916Z,1.60
2018-12-14T00:20:10.419Z,1.60
2018-12-14T00:22:40.566Z,1.50
2018-12-14T00:25:10.845Z,1.50
2018-12-14T00:27:40.974Z,1.50
2018-12-14T00:30:11.498Z,1.60
2018-12-14T00:32:41.846Z,1.60
2018-12-14T00:35:11.986Z,1.60
2018-12-14T00:37:42.202Z,1.50
2018-12-14T00:40:12.340Z,1.60
2018-12-14T00:42:42.480Z,1.60
2018-12-14T00:45:12.643Z,1.60
2018-12-14T00:47:42.817Z,1.60
2018-12-14T00:50:12.907Z,1.70
2018-12-14T00:52:43.055Z,1.60
2018-12-14T00:55:13.203Z,1.50
2018-12-14T00:57:43.530Z,1.40
2018-12-14T01:00:13.849Z,1.50
2018-12-14T01:02:44.161Z,1.50
2018-12-14T01:05:14.559Z,1.50
2018-12-14T01:07:45.176Z,1.50
2018-12-14T01:10:15.458Z,1.40
2018-12-14T01:12:47.346Z,1.40
2018-12-14T01:15:18.547Z,1.40
2018-12-14T01:17:48.738Z,1.50
2018-12-14T01:20:18.956Z,1.50
2018-12-14T01:22:49.329Z,0.60
2018-12-14T01:25:19.570Z,1.40
2018-12-14T01:27:49.726Z,1.40
2018-12-14T01:30:20.000Z,1.40
2018-12-14T01:32:50.245Z,1.40
2018-12-14T01:35:20.519Z,1.40
2018-12-14T01:37:50.795Z,1.50
2018-12-14T01:40:20.999Z,1.50
2018-12-14T01:42:51.367Z,1.50
2018-12-14T01:45:21.624Z,1.40
2018-12-14T01:47:51.701Z,1.40
2018-12-14T01:50:22.015Z,1.40
2018-12-14T01:52:52.129Z,1.40
2018-12-14T01:55:22.312Z,1.40
2018-12-14T01:57:52.505Z,1.40
2018-12-14T02:00:22.688Z,1.40
2018-12-14T02:02:52.790Z,1.40
2018-12-14T02:05:22.990Z,1.40
2018-12-14T02:07:53.833Z,1.40
2018-12-14T02:10:23.996Z,1.40
2018-12-14T02:12:54.168Z,1.40
2018-12-14T02:15:24.391Z,1.40
2018-12-14T02:17:54.476Z,1.40
2018-12-14T02:20:24.679Z,1.50
2018-12-14T02:22:54.872Z,1.40
2018-12-14T02:25:25.009Z,1.20
2018-12-14T02:28:01.605Z,1.10
2018-12-14T02:30:43.199Z,1.10
2018-12-14T02:33:13.852Z,1.10
2018-12-14T02:35:44.156Z,1.20
2018-12-14T02:38:14.373Z,1.20
2018-12-14T02:40:45.613Z,1.20
2018-12-14T02:43:15.827Z,1.20
2018-12-14T02:45:46.095Z,1.10
2018-12-14T02:48:16.270Z,1.20
2018-12-14T02:50:46.521Z,1.20
2018-12-14T02:53:16.620Z,1.20
2018-12-14T02:55:46.826Z,1.30
2018-12-14T02:58:16.987Z,1.30
2018-12-14T03:00:47.137Z,1.30
2018-12-14T03:03:17.283Z,1.30
2018-12-14T03:05:47.489Z,1.30
2018-12-14T03:08:17.660Z,1.30
2018-12-14T03:10:47.826Z,1.40
2018-12-14T03:13:18.120Z,1.50
2018-12-14T03:15:48.232Z,1.50
2018-12-14T03:18:18.394Z,1.50
2018-12-14T03:20:48.537Z,1.40
2018-12-14T03:23:18.698Z,1.40
2018-12-14T03:25:49.110Z,1.40
2018-12-14T03:28:19.254Z,1.50
2018-12-14T03:33:54.019Z,1.60
2018-12-14T03:36:24.261Z,1.60
2018-12-14T03:38:54.768Z,1.60
2018-12-14T03:41:24.890Z,1.60
2018-12-14T03:43:55.037Z,1.70
2018-12-14T03:46:25.201Z,1.60
2018-12-14T03:48:55.413Z,1.60
2018-12-14T03:51:28.755Z,1.50
2018-12-14T03:53:59.027Z,1.50
2018-12-14T03:56:29.154Z,1.50
2018-12-14T03:58:59.261Z,1.50
2018-12-14T04:01:29.437Z,1.60
2018-12-14T04:03:59.579Z,1.60
2018-12-14T04:06:29.746Z,1.60
2018-12-14T04:09:01.991Z,1.60
2018-12-14T04:11:34.167Z,1.60
2018-12-14T04:14:04.481Z,1.60
2018-12-14T04:16:34.626Z,1.60
2018-12-14T04:19:04.991Z,1.60
2018-12-14T04:21:35.191Z,1.60
2018-12-14T04:24:05.399Z,1.80
2018-12-14T04:26:35.556Z,1.80
2018-12-14T04:29:05.980Z,1.80
2018-12-14T04:31:36.138Z,1.70
2018-12-14T04:34:06.378Z,1.70
2018-12-14T04:36:36.562Z,1.70
2018-12-14T04:39:08.827Z,1.70
2018-12-14T04:41:38.902Z,1.60
2018-12-14T04:44:09.094Z,1.40
2018-12-14T04:46:39.167Z,1.40
2018-12-14T04:49:09.365Z,1.40
2018-12-14T04:51:39.582Z,1.50
2018-12-14T04:54:09.713Z,1.40
2018-12-14T04:56:39.970Z,1.50
2018-12-14T04:59:10.099Z,1.60
2018-12-14T05:01:40.187Z,1.70
2018-12-14T05:04:10.298Z,1.70
2018-12-14T05:06:40.452Z,1.70
2018-12-14T05:09:10.631Z,1.60
2018-12-14T05:11:40.821Z,1.50
2018-12-14T05:14:10.985Z,1.50
2018-12-14T05:16:41.089Z,1.50
2018-12-14T05:19:11.210Z,1.60
2018-12-14T05:21:41.650Z,1.60
2018-12-14T05:24:11.794Z,1.60
2018-12-14T05:26:41.969Z,1.70
2018-12-14T05:29:12.107Z,1.70
2018-12-14T05:31:42.230Z,1.60
2018-12-14T05:34:12.333Z,1.60
2018-12-14T05:36:42.458Z,1.70
2018-12-14T05:39:12.635Z,1.70
2018-12-14T05:41:42.789Z,1.70
2018-12-14T05:44:12.957Z,1.60
2018-12-14T05:46:43.142Z,1.60
2018-12-14T05:49:13.782Z,1.70
2018-12-14T05:51:43.913Z,1.80
2018-12-14T05:54:14.193Z,1.80
2018-12-14T05:56:44.591Z,1.80
2018-12-14T05:59:14.963Z,1.80
2018-12-14T06:01:45.282Z,1.90
2018-12-14T06:04:15.531Z,1.90
2018-12-14T06:06:45.788Z,1.80
2018-12-14T06:09:16.160Z,1.90
2018-12-14T06:11:46.377Z,1.90
2018-12-14T06:14:16.539Z,1.80
2018-12-14T06:16:46.698Z,1.80
2018-12-14T06:19:16.824Z,1.80
2018-12-14T06:21:47.024Z,1.90
2018-12-14T06:24:17.641Z,2.00
2018-12-14T06:26:47.791Z,2.10
2018-12-14T06:29:17.879Z,2.20
2018-12-14T06:31:48.048Z,2.30
2018-12-14T06:34:18.161Z,2.30
2018-12-14T06:36:48.339Z,2.30
2018-12-14T06:39:18.801Z,2.20
2018-12-14T06:41:49.405Z,2.20
2018-12-14T06:44:19.548Z,2.10
2018-12-14T06:46:49.698Z,2.10
2018-12-14T06:49:19.832Z,2.00
2018-12-14T06:51:49.969Z,2.00
2018-12-14T06:54:20.153Z,1.90
2018-12-14T06:56:50.244Z,1.80
2018-12-14T06:59:20.445Z,1.80
2018-12-14T07:01:50.600Z,1.80
2018-12-14T07:04:20.798Z,1.80
2018-12-14T07:06:50.921Z,1.90
2018-12-14T07:09:21.017Z,1.90
2018-12-14T07:11:51.197Z,1.90
2018-12-14T07:14:21.443Z,1.90
2018-12-14T07:16:51.679Z,1.90
2018-12-14T07:19:21.913Z,1.80
2018-12-14T07:21:52.083Z,1.70
2018-12-14T07:24:22.393Z,1.70
2018-12-14T07:26:52.784Z,1.70
2018-12-14T07:29:24.226Z,1.80
2018-12-14T07:31:54.401Z,1.80
2018-12-14T07:34:24.723Z,1.70
2018-12-14T07:36:54.867Z,1.70
2018-12-14T07:39:25.202Z,1.70
2018-12-14T07:41:55.492Z,1.70
2018-12-14T07:44:25.889Z,1.70
2018-12-14T07:46:56.004Z,1.60
2018-12-14T07:49:26.321Z,1.60
2018-12-14T07:51:56.606Z,1.70
2018-12-14T07:54:26.807Z,1.70
2018-12-14T07:56:56.963Z,1.70
2018-12-14T07:59:27.203Z,1.70
2018-12-14T08:01:57.374Z,1.70
2018-12-14T08:04:27.845Z,1.70
2018-12-14T08:06:58.462Z,1.70
2018-12-14T08:09:28.661Z,1.70
2018-12-14T08:11:58.825Z,1.80
2018-12-14T08:14:29.011Z,1.80
2018-12-14T08:16:59.128Z,1.80
2018-12-14T08:19:29.305Z,1.80
2018-12-14T08:21:59.439Z,1.80
2018-12-14T08:24:29.584Z,1.80
2018-12-14T08:26:59.738Z,1.80
2018-12-14T08:29:29.852Z,1.80
2018-12-14T08:32:00.012Z,1.70
2018-12-14T08:34:30.271Z,1.60
2018-12-14T08:37:00.422Z,1.60
2018-12-14T08:39:30.629Z,1.70
2018-12-14T08:42:00.836Z,1.80
2018-12-14T08:44:31.016Z,1.80
2018-12-14T08:47:01.258Z,1.80
2018-12-14T08:49:31.453Z,1.70
2018-12-14T08:52:01.565Z,1.70
2018-12-14T08:54:31.695Z,1.70
2018-12-14T08:57:01.842Z,1.60
2018-12-14T08:59:31.967Z,1.60
2018-12-14T09:02:02.160Z,1.70
2018-12-14T09:04:32.234Z,1.70
2018-12-14T09:07:02.401Z,1.70
2018-12-14T09:09:32.613Z,1.60
2018-12-14T09:12:03.182Z,1.60
2018-12-14T09:14:33.407Z,1.60
2018-12-14T09:17:03.568Z,1.60
2018-12-14T09:19:33.728Z,1.50
2018-12-14T09:22:03.935Z,1.60
2018-12-14T09:24:34.130Z,1.60
2018-12-14T09:27:04.344Z,1.70
2018-12-14T09:29:34.512Z,1.60
2018-12-14T09:32:05.060Z,1.60
2018-12-14T09:34:35.517Z,1.50
2018-12-14T09:37:05.634Z,1.60
2018-12-14T09:39:35.749Z,1.60
2018-12-14T09:42:05.869Z,1.60
2018-12-14T09:44:35.999Z,1.60
2018-12-14T09:47:06.117Z,1.50
2018-12-14T09:49:36.253Z,1.50
2018-12-14T09:52:06.439Z,1.60
2018-12-14T09:54:36.595Z,1.60
2018-12-14T09:57:06.781Z,1.60
2018-12-14T09:59:37.014Z,1.70
2018-12-14T10:02:07.234Z,1.70
2018-12-14T10:04:37.381Z,1.70
2018-12-14T10:07:07.615Z,1.80
2018-12-14T10:09:38.103Z,1.80
2018-12-14T10:12:08.225Z,1.80
2018-12-14T10:14:38.413Z,1.80
2018-12-14T10:17:08.573Z,1.70
2018-12-14T10:19:38.806Z,1.60
2018-12-14T10:22:09.060Z,1.70
2018-12-14T10:24:40.375Z,1.70
2018-12-14T10:27:10.557Z,1.60
2018-12-14T10:29:40.739Z,1.50
2018-12-14T10:32:10.962Z,1.50
2018-12-14T10:34:41.463Z,1.40
2018-12-14T10:37:11.737Z,1.40
2018-12-14T10:39:41.979Z,1.40
2018-12-14T10:42:12.163Z,1.40
2018-12-14T10:44:42.415Z,1.40
2018-12-14T10:47:12.591Z,1.40
2018-12-14T10:49:42.814Z,1.40
2018-12-14T10:52:13.044Z,1.40
2018-12-14T10:54:43.436Z,1.40
2018-12-14T10:57:16.273Z,1.50
2018-12-14T10:59:45.728Z,1.50
2018-12-14T11:02:15.958Z,1.60
2018-12-14T11:04:46.133Z,1.60
2018-12-14T11:07:16.300Z,1.70
2018-12-14T11:09:46.461Z,1.80
2018-12-14T11:12:16.787Z,1.80
2018-12-14T11:14:47.099Z,1.90
2018-12-14T11:17:17.455Z,2.00
2018-12-14T11:19:47.669Z,2.00
2018-12-14T11:22:17.870Z,2.00
2018-12-14T11:24:48.139Z,2.00
2018-12-14T11:27:18.292Z,2.10
2018-12-14T11:29:48.533Z,2.00
2018-12-14T11:32:18.832Z,2.00
2018-12-14T11:34:48.938Z,2.10
2018-12-14T11:37:19.174Z,2.10
2018-12-14T11:39:49.335Z,2.10
2018-12-14T11:42:19.487Z,2.20
2018-12-14T11:44:49.732Z,2.20
2018-12-14T11:47:19.930Z,2.20
2018-12-14T11:49:50.048Z,2.10
2018-12-14T11:52:20.223Z,2.00
2018-12-14T11:54:50.361Z,1.80
2018-12-14T11:57:20.729Z,1.70
2018-12-14T11:59:50.864Z,1.70
2018-12-14T12:02:21.036Z,1.70
2018-12-14T12:04:51.161Z,1.70
2018-12-14T12:07:21.281Z,1.70
2018-12-14T12:09:51.398Z,1.60
2018-12-14T12:12:21.547Z,1.50
2018-12-14T12:14:51.726Z,1.60
2018-12-14T12:17:21.885Z,1.60
2018-12-14T12:19:52.087Z,1.60
2018-12-14T12:22:22.220Z,1.60
2018-12-14T12:24:52.361Z,1.70
2018-12-14T12:27:22.512Z,1.70
2018-12-14T12:29:52.689Z,1.70
2018-12-14T12:32:22.745Z,1.70
2018-12-14T12:34:52.880Z,1.80
2018-12-14T12:37:23.146Z,1.80
2018-12-14T12:39:53.286Z,1.80
2018-12-14T12:42:23.451Z,1.70
2018-12-14T12:44:53.589Z,1.60
2018-12-14T12:47:23.771Z,1.70
2018-12-14T12:49:54.092Z,1.70
2018-12-14T12:52:24.931Z,1.60
2018-12-14T12:54:55.065Z,1.60
2018-12-14T12:57:25.386Z,1.70
2018-12-14T12:59:55.501Z,1.70
2018-12-14T13:02:25.637Z,1.80
2018-12-14T13:04:55.992Z,1.80
2018-12-14T13:07:26.095Z,1.80
2018-12-14T13:09:56.322Z,1.80
2018-12-14T13:12:26.565Z,1.80
2018-12-14T13:14:56.751Z,1.90
2018-12-14T13:17:27.021Z,1.90
2018-12-14T13:19:57.156Z,1.90
2018-12-14T13:22:28.261Z,2.00
2018-12-14T13:24:58.360Z,2.00
2018-12-14T13:27:28.623Z,2.10
2018-12-14T13:29:58.725Z,2.10
2018-12-14T13:32:28.878Z,2.20
2018-12-14T13:35:05.225Z,2.20
2018-12-14T13:37:35.393Z,2.10
2018-12-14T13:40:06.545Z,2.10
2018-12-14T13:42:36.664Z,2.10
2018-12-14T13:45:07.079Z,2.10
2018-12-14T13:47:37.356Z,2.20
2018-12-14T13:50:08.245Z,2.20
2018-12-14T13:52:38.399Z,2.20
2018-12-14T13:55:08.698Z,2.20
2018-12-14T13:57:38.917Z,2.10
2018-12-14T14:00:09.319Z,2.20
2018-12-14T14:02:39.539Z,2.20
2018-12-14T14:05:09.747Z,2.20
2018-12-14T14:07:40.001Z,2.30
2018-12-14T14:10:10.311Z,2.30
2018-12-14T14:12:40.683Z,2.20
2018-12-14T14:15:11.026Z,2.30
2018-12-14T14:17:41.552Z,2.30
2018-12-14T14:20:11.770Z,2.40
2018-12-14T14:22:41.926Z,2.40
2018-12-14T14:25:17.538Z,2.30
2018-12-14T14:27:44.167Z,2.20
2018-12-14T14:30:14.383Z,2.20
2018-12-14T14:32:45.673Z,2.10
2018-12-14T14:35:16.899Z,2.20
2018-12-14T14:37:47.129Z,2.20
2018-12-14T14:40:17.256Z,2.30
2018-12-14T14:42:47.429Z,2.30
2018-12-14T14:45:17.689Z,2.20
2018-12-14T14:47:47.816Z,2.20
2018-12-14T14:50:17.947Z,2.10
2018-12-14T14:52:48.084Z,2.00
2018-12-14T14:55:18.206Z,2.00
2018-12-14T14:57:48.713Z,2.00
2018-12-14T15:00:19.033Z,2.00
2018-12-14T15:02:49.326Z,2.00
2018-12-14T15:05:19.448Z,2.00
2018-12-14T15:07:49.592Z,1.90
2018-12-14T15:10:19.726Z,1.90
2018-12-14T15:12:49.862Z,1.90
2018-12-14T15:15:20.021Z,1.90
2018-12-14T15:17:51.162Z,1.90
2018-12-14T15:20:21.280Z,1.80
2018-12-14T15:22:51.365Z,1.70
2018-12-14T15:25:21.509Z,1.60
2018-12-14T15:27:51.750Z,1.60
2018-12-14T15:30:21.980Z,1.70
2018-12-14T15:32:52.118Z,1.70
2018-12-14T15:35:22.300Z,1.60
2018-12-14T15:37:52.442Z,1.70
2018-12-14T15:40:22.576Z,1.60
2018-12-14T15:42:52.743Z,1.60
2018-12-14T15:45:22.955Z,1.70
2018-12-14T15:47:54.291Z,1.70
2018-12-14T15:50:24.423Z,1.70
2018-12-14T15:52:54.600Z,1.80
2018-12-14T15:55:24.777Z,1.80
2018-12-14T15:57:54.940Z,1.80
2018-12-14T16:00:25.201Z,1.90
2018-12-14T16:02:55.408Z,1.90
2018-12-14T16:05:25.721Z,2.00
2018-12-14T16:07:55.930Z,2.00
2018-12-14T16:10:26.183Z,2.00
2018-12-14T16:12:56.384Z,2.00
2018-12-14T16:15:26.550Z,1.90
2018-12-14T16:17:56.804Z,1.90
2018-12-14T16:20:27.300Z,1.90
2018-12-14T16:22:57.395Z,1.90
2018-12-14T16:25:27.526Z,1.90
2018-12-14T16:27:57.739Z,1.80
2018-12-14T16:30:28.153Z,1.80
2018-12-14T16:32:59.381Z,1.80
2018-12-14T16:35:29.579Z,1.80
2018-12-14T16:37:59.697Z,1.70
2018-12-14T16:40:29.923Z,1.80
2018-12-14T16:43:00.151Z,1.70
2018-12-14T16:45:30.271Z,1.70
2018-12-14T16:48:00.559Z,1.70
2018-12-14T16:50:30.758Z,1.70
2018-12-14T16:53:01.156Z,1.80
2018-12-14T16:55:31.424Z,1.90
2018-12-14T16:58:01.680Z,1.90
2018-12-14T17:00:31.896Z,2.00
2018-12-14T17:03:02.122Z,2.10
2018-12-14T17:05:32.240Z,2.10
2018-12-14T17:08:02.513Z,2.10
2018-12-14T17:10:32.707Z,2.10
2018-12-14T17:13:02.871Z,2.20
2018-12-14T17:15:33.485Z,2.30
2018-12-14T17:18:04.736Z,2.20
2018-12-14T17:20:34.967Z,2.10
2018-12-14T17:23:05.141Z,2.10
2018-12-14T17:25:35.330Z,2.20
2018-12-14T17:28:05.695Z,2.20
2018-12-14T17:30:35.908Z,2.10
2018-12-14T17:33:06.015Z,2.00
2018-12-14T17:35:36.220Z,2.00
2018-12-14T17:38:08.361Z,2.00
2018-12-14T17:40:40.421Z,1.90
2018-12-14T17:43:10.562Z,1.90
2018-12-14T17:45:40.743Z,1.90
2018-12-14T17:48:10.942Z,1.90
2018-12-14T17:50:41.023Z,2.00
2018-12-14T17:53:11.274Z,2.00
2018-12-14T17:55:41.429Z,2.00
2018-12-14T17:58:11.580Z,2.10
2018-12-14T18:00:41.674Z,2.10
2018-12-14T18:03:11.801Z,2.00
2018-12-14T18:05:41.917Z,2.00
2018-12-14T18:08:12.161Z,1.90
2018-12-14T18:10:42.328Z,1.80
2018-12-14T18:13:12.461Z,1.70
2018-12-14T18:15:46.336Z,1.80
2018-12-14T18:18:14.763Z,1.80
2018-12-14T18:20:44.999Z,1.80
2018-12-14T18:23:15.091Z,1.70
2018-12-14T18:25:45.329Z,1.70
2018-12-14T18:28:15.481Z,1.60
2018-12-14T18:30:45.753Z,1.60
2018-12-14T18:33:15.911Z,1.70
2018-12-14T18:35:46.087Z,1.70
2018-12-14T18:38:16.207Z,1.70
2018-12-14T18:40:46.362Z,1.70
2018-12-14T18:43:16.511Z,1.70
2018-12-14T18:45:53.186Z,1.80
2018-12-14T18:48:19.931Z,1.80
2018-12-14T18:50:50.059Z,1.70
2018-12-14T18:53:20.227Z,1.70
2018-12-14T18:55:50.423Z,1.70
2018-12-14T18:58:20.661Z,1.70
2018-12-14T19:00:50.820Z,1.70
2018-12-14T19:03:21.046Z,1.80
2018-12-14T19:05:51.193Z,1.80
2018-12-14T19:08:22.463Z,1.80
2018-12-14T19:10:52.601Z,1.80
2018-12-14T19:13:22.943Z,1.80
2018-12-14T19:15:59.454Z,1.90
2018-12-14T19:18:25.220Z,1.90
2018-12-14T19:20:55.337Z,1.90
2018-12-14T19:23:25.482Z,2.00
2018-12-14T19:25:55.660Z,2.00
2018-12-14T19:28:25.844Z,2.00
2018-12-14T19:30:55.970Z,2.00
2018-12-14T19:33:26.135Z,2.00
2018-12-14T19:35:56.310Z,2.00
2018-12-14T19:38:26.439Z,2.00
2018-12-14T19:40:56.602Z,2.00
2018-12-14T19:43:26.792Z,2.00
2018-12-14T19:45:56.995Z,1.90
2018-12-14T19:48:27.126Z,1.90
2018-12-14T19:50:57.284Z,1.90
2018-12-14T19:53:27.519Z,2.00
2018-12-14T19:55:57.824Z,2.00
2018-12-14T19:58:27.954Z,2.00
2018-12-14T20:00:58.145Z,2.10
2018-12-14T20:03:28.282Z,2.10
2018-12-14T20:05:58.574Z,2.00
2018-12-14T20:08:28.715Z,2.00
2018-12-14T20:10:58.852Z,1.90
2018-12-14T20:13:29.076Z,1.90
2018-12-14T20:15:59.200Z,1.90
2018-12-14T20:18:29.393Z,1.90
2018-12-14T20:20:59.609Z,1.90
2018-12-14T20:23:29.810Z,2.00
2018-12-14T20:25:59.945Z,2.00
2018-12-14T20:28:31.055Z,1.90
2018-12-14T20:31:01.330Z,1.90
2018-12-14T20:33:31.623Z,1.90
2018-12-14T20:36:01.804Z,1.80
2018-12-14T20:38:32.189Z,1.90
2018-12-14T20:41:02.436Z,1.90
2018-12-14T20:43:32.789Z,2.00
2018-12-14T20:46:02.965Z,2.00
2018-12-14T20:48:33.288Z,1.90
2018-12-14T20:51:03.470Z,1.20
2018-12-14T20:53:33.710Z,1.90
2018-12-14T20:56:03.907Z,1.90
2018-12-14T20:58:34.008Z,1.90
2018-12-14T21:01:04.195Z,1.90
2018-12-14T21:03:34.525Z,1.90
2018-12-14T21:06:04.784Z,1.80
2018-12-14T21:08:34.953Z,1.80
2018-12-14T21:11:05.292Z,1.80
2018-12-14T21:13:35.543Z,1.80
2018-12-14T21:16:05.791Z,1.80
2018-12-14T21:18:35.930Z,1.70
2018-12-14T21:21:06.290Z,1.70
2018-12-14T21:23:36.561Z,1.60
2018-12-14T21:26:06.681Z,1.60
2018-12-14T21:28:36.888Z,1.60
2018-12-14T21:31:07.064Z,1.60
2018-12-14T21:33:37.184Z,1.50
2018-12-14T21:36:07.310Z,1.60
2018-12-14T21:38:37.452Z,1.70
2018-12-14T21:41:07.603Z,1.70
2018-12-14T21:43:37.802Z,1.70
2018-12-14T21:46:07.960Z,1.60
2018-12-14T21:48:38.123Z,1.70
2018-12-14T21:51:08.236Z,1.70
2018-12-14T21:53:38.389Z,1.60
2018-12-14T21:56:08.503Z,1.60
2018-12-14T21:58:38.687Z,1.70
2018-12-14T22:01:08.782Z,1.70
2018-12-14T22:03:39.065Z,1.70
2018-12-14T22:06:09.266Z,1.70
2018-12-14T22:08:39.438Z,1.70
2018-12-14T22:11:09.520Z,1.70
2018-12-14T22:13:39.619Z,1.70
2018-12-14T22:16:09.783Z,1.70
2018-12-14T22:18:39.984Z,1.70
2018-12-14T22:21:10.180Z,1.70
2018-12-14T22:23:40.313Z,1.70
2018-12-14T22:26:10.411Z,1.60
2018-12-14T22:28:40.566Z,1.60
2018-12-14T22:31:10.702Z,1.50
2018-12-14T22:33:40.829Z,1.50
2018-12-14T22:36:10.973Z,1.50
2018-12-14T22:38:41.108Z,1.50
2018-12-14T22:41:11.281Z,1.50
2018-12-14T22:43:41.424Z,1.60
2018-12-14T22:46:11.567Z,1.50
2018-12-14T22:48:41.761Z,1.60
2018-12-14T22:51:11.921Z,1.60
2018-12-14T22:53:42.053Z,1.50
2018-12-14T22:56:12.234Z,1.50
2018-12-14T22:58:42.364Z,1.60
2018-12-14T23:01:12.717Z,1.50
2018-12-14T23:03:43.154Z,1.50
2018-12-14T23:06:13.320Z,1.50
2018-12-14T23:08:43.489Z,1.50
2018-12-14T23:11:13.727Z,1.50
2018-12-14T23:13:43.869Z,1.50
2018-12-14T23:16:14.148Z,1.50
2018-12-14T23:18:44.375Z,1.50
2018-12-14T23:21:14.523Z,1.40
2018-12-14T23:23:44.633Z,1.30
2018-12-14T23:26:14.807Z,1.30
2018-12-14T23:28:44.996Z,1.40
2018-12-14T23:31:15.254Z,1.40
2018-12-14T23:33:45.433Z,1.30
2018-12-14T23:36:15.867Z,1.30
2018-12-14T23:38:46.137Z,1.40
2018-12-14T23:41:16.373Z,1.50
2018-12-14T23:43:46.617Z,1.50
2018-12-14T23:46:16.802Z,1.60
2018-12-14T23:48:47.123Z,1.70
2018-12-14T23:51:17.380Z,1.80
2018-12-14T23:53:47.563Z,1.80
2018-12-14T23:56:17.766Z,1.80
2018-12-14T23:58:49.929Z,1.80
